createdAt,value
2018-08-16T00:00:47.525Z,21.29
2018-08-16T00:03:19.407Z,21.09
2018-08-16T00:05:51.625Z,21.00
2018-08-16T00:08:23.266Z,21.17
2018-08-16T00:10:54.256Z,20.87
2018-08-16T00:13:24.620Z,20.89
2018-08-16T00:15:55.946Z,21.07
2018-08-16T00:18:29.726Z,21.05
2018-08-16T00:21:00.613Z,21.11
2018-08-16T00:23:31.255Z,21.15
2018-08-16T00:26:03.715Z,21.28
2018-08-16T00:28:34.884Z,20.92
2018-08-16T00:31:05.587Z,20.91
2018-08-16T00:36:30.962Z,20.80
2018-08-16T00:38:59.984Z,20.71
2018-08-16T00:41:28.965Z,20.77
2018-08-16T00:43:57.812Z,20.82
2018-08-16T00:46:26.654Z,20.62
2018-08-16T00:48:55.589Z,20.71
2018-08-16T00:51:24.619Z,20.87
2018-08-16T00:53:53.463Z,20.84
2018-08-16T00:56:22.363Z,20.77
2018-08-16T00:58:51.249Z,20.69
2018-08-16T01:01:20.191Z,20.88
2018-08-16T01:03:49.008Z,20.80
2018-08-16T01:06:17.924Z,20.74
2018-08-16T01:08:46.827Z,20.88
2018-08-16T01:11:15.699Z,20.79
2018-08-16T01:13:44.548Z,20.74
2018-08-16T01:16:13.504Z,20.67
2018-08-16T01:18:42.855Z,20.82
2018-08-16T01:21:12.985Z,20.83
2018-08-16T01:23:42.961Z,20.82
2018-08-16T01:26:12.915Z,20.87
2018-08-16T01:28:41.848Z,20.86
2018-08-16T01:31:10.671Z,20.89
2018-08-16T01:33:44.711Z,21.00
2018-08-16T01:36:14.939Z,20.78
2018-08-16T01:38:45.740Z,20.71
2018-08-16T01:41:16.945Z,20.74
2018-08-16T01:43:47.730Z,20.82
2018-08-16T01:46:18.181Z,20.73
2018-08-16T01:48:48.904Z,20.63
2018-08-16T01:51:18.764Z,20.57
2018-08-16T01:53:50.606Z,20.48
2018-08-16T01:56:22.077Z,20.33
2018-08-16T01:58:53.357Z,20.33
2018-08-16T02:01:24.836Z,20.38
2018-08-16T02:03:55.800Z,20.41
2018-08-16T02:06:25.938Z,20.35
2018-08-16T02:08:56.724Z,20.43
2018-08-16T02:11:29.228Z,20.40
2018-08-16T02:13:59.359Z,20.40
2018-08-16T02:16:29.526Z,20.48
2018-08-16T02:19:02.595Z,20.39
2018-08-16T02:21:34.713Z,20.35
2018-08-16T02:24:04.759Z,20.29
2018-08-16T02:26:35.406Z,20.12
2018-08-16T02:29:06.915Z,20.07
2018-08-16T02:31:36.597Z,20.01
2018-08-16T02:34:07.872Z,20.01
2018-08-16T02:36:39.131Z,20.13
2018-08-16T02:39:11.657Z,20.17
2018-08-16T02:41:41.966Z,20.32
2018-08-16T02:44:16.735Z,20.19
2018-08-16T02:46:47.288Z,20.08
2018-08-16T02:49:18.506Z,20.08
2018-08-16T02:51:49.421Z,20.03
2018-08-16T02:54:20.594Z,20.08
2018-08-16T02:56:51.316Z,20.13
2018-08-16T02:59:21.683Z,20.24
2018-08-16T03:01:52.261Z,20.04
2018-08-16T03:04:25.025Z,20.06
2018-08-16T03:06:56.596Z,20.03
2018-08-16T03:09:27.245Z,20.01
2018-08-16T03:11:58.057Z,19.96
2018-08-16T03:14:30.839Z,20.06
2018-08-16T03:17:02.341Z,19.99
2018-08-16T03:19:33.519Z,19.65
2018-08-16T03:22:02.385Z,19.70
2018-08-16T03:24:31.296Z,19.56
2018-08-16T03:27:01.176Z,19.57
2018-08-16T03:29:31.102Z,19.45
2018-08-16T03:32:00.000Z,19.51
2018-08-16T03:34:29.241Z,19.60
2018-08-16T03:36:58.182Z,19.34
2018-08-16T03:39:27.089Z,19.16
2018-08-16T03:41:56.026Z,19.30
2018-08-16T03:44:24.873Z,19.56
2018-08-16T03:46:53.829Z,19.66
2018-08-16T03:49:22.993Z,19.26
2018-08-16T03:51:51.983Z,19.42
2018-08-16T03:54:20.948Z,19.62
2018-08-16T03:56:49.761Z,19.68
2018-08-16T03:59:18.596Z,19.76
2018-08-16T04:01:47.530Z,19.77
2018-08-16T04:04:16.390Z,19.62
2018-08-16T04:06:45.415Z,19.75
2018-08-16T04:09:14.299Z,19.71
2018-08-16T04:14:18.223Z,19.71
2018-08-16T04:16:47.466Z,19.85
2018-08-16T04:19:16.606Z,19.87
2018-08-16T04:21:45.472Z,20.02
2018-08-16T04:24:14.319Z,19.89
2018-08-16T04:26:43.253Z,20.00
2018-08-16T04:29:12.113Z,20.11
2018-08-16T04:31:40.921Z,20.35
2018-08-16T04:34:09.739Z,20.75
2018-08-16T04:36:38.725Z,21.15
2018-08-16T04:39:08.315Z,21.22
2018-08-16T04:41:37.594Z,21.16
2018-08-16T04:44:06.628Z,20.94
2018-08-16T04:46:35.484Z,21.08
2018-08-16T04:49:04.420Z,21.03
2018-08-16T04:51:33.300Z,20.96
2018-08-16T04:54:02.146Z,21.11
2018-08-16T04:56:32.172Z,21.28
2018-08-16T04:59:02.175Z,21.07
2018-08-16T05:01:32.123Z,21.41
2018-08-16T05:04:02.013Z,21.46
2018-08-16T05:06:31.920Z,21.40
2018-08-16T05:09:00.766Z,21.54
2018-08-16T05:11:29.751Z,21.82
2018-08-16T05:13:58.933Z,21.97
2018-08-16T05:16:27.667Z,22.09
2018-08-16T05:18:57.558Z,22.58
2018-08-16T05:21:26.421Z,22.57
2018-08-16T05:23:55.324Z,22.79
2018-08-16T05:26:24.201Z,22.88
2018-08-16T05:28:54.008Z,23.24
2018-08-16T05:31:22.958Z,23.21
2018-08-16T05:33:51.837Z,23.42
2018-08-16T05:36:20.719Z,23.61
2018-08-16T05:38:49.565Z,23.41
2018-08-16T05:41:18.753Z,23.75
2018-08-16T05:43:47.765Z,23.96
2018-08-16T05:46:16.953Z,24.26
2018-08-16T05:48:47.213Z,24.15
2018-08-16T05:51:16.103Z,24.18
2018-08-16T05:53:44.956Z,24.21
2018-08-16T05:56:13.859Z,24.25
2018-08-16T05:58:43.739Z,24.35
2018-08-16T06:01:12.770Z,24.29
2018-08-16T06:03:41.674Z,24.27
2018-08-16T06:06:10.449Z,24.46
2018-08-16T06:08:39.266Z,24.88
2018-08-16T06:11:08.099Z,24.85
2018-08-16T06:13:36.990Z,25.22
2018-08-16T06:16:06.715Z,25.25
2018-08-16T06:18:35.506Z,25.29
2018-08-16T06:21:04.543Z,25.45
2018-08-16T06:23:33.412Z,25.45
2018-08-16T06:26:02.785Z,25.65
2018-08-16T06:28:33.180Z,25.80
2018-08-16T06:31:02.973Z,25.51
2018-08-16T06:33:32.999Z,25.60
2018-08-16T06:38:37.037Z,25.70
2018-08-16T06:41:05.870Z,25.89
2018-08-16T06:43:34.735Z,25.97
2018-08-16T06:46:03.726Z,26.15
2018-08-16T06:48:33.293Z,26.32
2018-08-16T06:51:09.014Z,26.24
2018-08-16T06:53:38.346Z,26.27
2018-08-16T06:56:07.143Z,26.64
2018-08-16T06:58:35.974Z,26.27
2018-08-16T07:01:04.803Z,26.48
2018-08-16T07:03:33.580Z,26.33
2018-08-16T07:06:06.325Z,26.79
2018-08-16T07:08:35.194Z,26.96
2018-08-16T07:11:04.237Z,27.15
2018-08-16T07:13:33.437Z,27.07
2018-08-16T07:16:03.687Z,26.96
2018-08-16T07:18:33.709Z,27.06
2018-08-16T07:21:03.377Z,27.17
2018-08-16T07:23:32.293Z,27.32
2018-08-16T07:26:01.221Z,27.54
2018-08-16T07:28:30.114Z,27.50
2018-08-16T07:30:59.271Z,27.65
2018-08-16T07:33:28.217Z,27.61
2018-08-16T07:35:57.058Z,27.53
2018-08-16T07:38:25.865Z,27.62
2018-08-16T07:40:54.687Z,27.83
2018-08-16T07:43:23.694Z,27.81
2018-08-16T07:45:52.677Z,27.60
2018-08-16T07:48:21.414Z,27.96
2018-08-16T07:50:50.256Z,28.18
2018-08-16T07:53:19.194Z,28.33
2018-08-16T07:55:48.057Z,28.34
2018-08-16T07:58:16.960Z,28.54
2018-08-16T08:00:46.425Z,28.67
2018-08-16T08:03:15.345Z,28.88
2018-08-16T08:05:44.272Z,28.72
2018-08-16T08:08:15.215Z,29.07
2018-08-16T08:10:44.114Z,28.97
2018-08-16T08:13:13.043Z,28.78
2018-08-16T08:15:41.896Z,29.24
2018-08-16T08:18:10.807Z,29.45
2018-08-16T08:20:39.736Z,29.36
2018-08-16T08:23:08.663Z,29.65
2018-08-16T08:25:37.585Z,29.92
2018-08-16T08:28:07.239Z,30.01
2018-08-16T08:30:36.062Z,29.75
2018-08-16T08:33:05.140Z,29.84
2018-08-16T08:35:34.127Z,29.91
2018-08-16T08:38:16.188Z,29.97
2018-08-16T08:40:44.982Z,30.16
2018-08-16T08:45:23.446Z,30.07
2018-08-16T08:47:56.120Z,29.18
2018-08-16T08:50:25.443Z,29.56
2018-08-16T08:52:59.150Z,29.60
2018-08-16T08:55:39.240Z,29.49
2018-08-16T08:58:19.234Z,29.39
2018-08-16T09:00:48.184Z,29.34
2018-08-16T09:03:17.067Z,29.58
2018-08-16T09:05:45.932Z,29.53
2018-08-16T09:08:14.865Z,29.09
2018-08-16T09:10:55.713Z,29.45
2018-08-16T09:13:36.637Z,29.31
2018-08-16T09:16:18.837Z,29.37
2018-08-16T09:18:48.194Z,29.55
2018-08-16T09:21:17.253Z,29.43
2018-08-16T09:23:46.174Z,29.65
2018-08-16T09:26:20.416Z,29.37
2018-08-16T09:28:49.651Z,29.45
2018-08-16T09:31:29.581Z,29.52
2018-08-16T09:34:09.496Z,29.43
2018-08-16T09:36:38.619Z,29.16
2018-08-16T09:39:09.126Z,29.16
2018-08-16T09:41:38.996Z,29.04
2018-08-16T09:44:08.245Z,28.74
2018-08-16T09:46:50.936Z,28.58
2018-08-16T09:49:19.919Z,28.79
2018-08-16T09:51:48.979Z,29.05
2018-08-16T09:54:17.935Z,29.58
2018-08-16T09:56:47.344Z,30.12
2018-08-16T09:59:16.496Z,30.54
2018-08-16T10:01:45.407Z,31.12
2018-08-16T10:04:14.324Z,31.19
2018-08-16T10:06:43.652Z,30.93
2018-08-16T10:09:21.113Z,30.92
2018-08-16T10:11:50.212Z,31.71
2018-08-16T10:14:19.586Z,32.00
2018-08-16T10:16:48.482Z,32.44
2018-08-16T10:19:17.854Z,32.46
2018-08-16T10:21:46.764Z,32.21
2018-08-16T10:24:15.628Z,31.67
2018-08-16T10:26:44.502Z,31.78
2018-08-16T10:29:13.620Z,31.68
2018-08-16T10:31:42.486Z,31.76
2018-08-16T10:34:11.334Z,31.94
2018-08-16T10:36:40.371Z,31.71
2018-08-16T10:39:16.018Z,31.35
2018-08-16T10:41:44.779Z,31.95
2018-08-16T10:44:14.388Z,32.23
2018-08-16T10:46:43.336Z,32.27
2018-08-16T10:49:12.412Z,32.27
2018-08-16T10:51:41.333Z,31.85
2018-08-16T10:54:10.200Z,31.60
2018-08-16T10:56:39.097Z,30.86
2018-08-16T10:59:09.807Z,30.66
2018-08-16T11:01:39.013Z,30.82
2018-08-16T11:04:08.842Z,30.48
2018-08-16T11:06:38.970Z,30.67
2018-08-16T11:09:10.041Z,31.53
2018-08-16T11:11:39.354Z,31.87
2018-08-16T11:14:09.033Z,32.27
2018-08-16T11:16:38.948Z,32.64
2018-08-16T11:19:09.913Z,33.09
2018-08-16T11:21:39.249Z,33.38
2018-08-16T11:24:09.041Z,33.27
2018-08-16T11:26:39.048Z,33.27
2018-08-16T11:29:08.968Z,33.27
2018-08-16T11:31:37.832Z,32.93
2018-08-16T11:34:06.666Z,33.46
2018-08-16T11:36:35.543Z,32.28
2018-08-16T11:39:05.971Z,31.76
2018-08-16T11:41:34.941Z,31.74
2018-08-16T11:44:03.983Z,31.81
2018-08-16T11:46:33.166Z,31.57
2018-08-16T11:49:01.938Z,31.61
2018-08-16T11:51:30.931Z,31.26
2018-08-16T11:54:00.270Z,31.07
2018-08-16T11:56:29.151Z,31.54
2018-08-16T11:58:57.993Z,32.50
2018-08-16T12:01:27.016Z,32.79
2018-08-16T12:03:55.834Z,33.43
2018-08-16T12:11:33.710Z,34.25
2018-08-16T12:14:02.643Z,34.13
2018-08-16T12:16:31.525Z,33.28
2018-08-16T12:19:00.404Z,32.68
2018-08-16T12:21:29.174Z,32.33
2018-08-16T12:23:58.061Z,31.31
2018-08-16T12:26:27.144Z,30.52
2018-08-16T12:28:56.045Z,30.26
2018-08-16T12:31:24.863Z,30.44
2018-08-16T12:33:54.019Z,30.22
2018-08-16T12:36:22.940Z,30.52
2018-08-16T12:38:51.750Z,30.39
2018-08-16T12:41:20.573Z,30.40
2018-08-16T12:43:49.468Z,30.43
2018-08-16T12:46:18.344Z,30.53
2018-08-16T12:48:47.121Z,30.21
2018-08-16T12:51:16.048Z,30.50
2018-08-16T12:53:44.932Z,30.24
2018-08-16T12:56:13.780Z,30.45
2018-08-16T12:58:42.721Z,30.64
2018-08-16T13:01:11.524Z,31.03
2018-08-16T13:03:46.621Z,31.19
2018-08-16T13:06:15.429Z,31.54
2018-08-16T13:08:44.334Z,32.16
2018-08-16T13:11:13.937Z,32.00
2018-08-16T13:13:42.717Z,32.33
2018-08-16T13:16:11.642Z,32.30
2018-08-16T13:18:40.638Z,32.70
2018-08-16T13:21:10.104Z,33.02
2018-08-16T13:23:40.085Z,32.59
2018-08-16T13:33:42.445Z,32.18
2018-08-16T13:36:11.244Z,32.62
2018-08-16T13:38:40.229Z,32.68
2018-08-16T13:41:16.035Z,32.40
2018-08-16T13:43:44.782Z,32.58
2018-08-16T13:46:13.715Z,32.94
2018-08-16T13:51:17.253Z,32.95
2018-08-16T13:53:46.166Z,33.19
2018-08-16T13:56:15.002Z,33.62
2018-08-16T13:58:44.550Z,33.04
2018-08-16T14:01:13.491Z,33.39
2018-08-16T14:03:43.045Z,33.69
2018-08-16T14:06:11.941Z,33.81
2018-08-16T14:08:40.840Z,33.36
2018-08-16T14:11:10.524Z,33.26
2018-08-16T14:13:39.729Z,33.68
2018-08-16T14:16:08.691Z,33.99
2018-08-16T14:18:37.596Z,34.14
2018-08-16T14:21:06.393Z,33.57
2018-08-16T14:23:35.289Z,32.92
2018-08-16T14:26:04.176Z,32.71
2018-08-16T14:28:32.959Z,32.30
2018-08-16T14:31:01.828Z,32.23
2018-08-16T14:33:30.713Z,32.50
2018-08-16T14:38:33.684Z,33.50
2018-08-16T14:41:02.496Z,33.67
2018-08-16T14:43:31.392Z,33.21
2018-08-16T14:46:00.227Z,33.56
2018-08-16T14:48:29.080Z,33.75
2018-08-16T14:50:57.948Z,33.61
2018-08-16T14:53:31.837Z,33.75
2018-08-16T14:56:03.892Z,33.96
2018-08-16T14:58:36.783Z,34.29
2018-08-16T15:01:08.576Z,34.27
2018-08-16T15:03:39.995Z,34.30
2018-08-16T15:06:12.577Z,34.36
2018-08-16T15:08:46.174Z,34.78
2018-08-16T15:11:16.722Z,34.74
2018-08-16T15:13:47.031Z,34.70
2018-08-16T15:16:18.276Z,34.84
2018-08-16T15:18:50.843Z,34.67
2018-08-16T15:21:22.317Z,34.20
2018-08-16T15:23:52.541Z,33.52
2018-08-16T15:26:22.852Z,33.81
2018-08-16T15:28:53.627Z,33.93
2018-08-16T15:31:25.144Z,33.71
2018-08-16T15:33:56.883Z,33.80
2018-08-16T15:36:28.355Z,34.08
2018-08-16T15:41:36.891Z,33.95
2018-08-16T15:44:10.857Z,33.69
2018-08-16T15:46:42.194Z,34.07
2018-08-16T15:49:14.286Z,33.96
2018-08-16T15:51:45.424Z,33.65
2018-08-16T15:54:16.872Z,33.97
2018-08-16T15:56:47.676Z,33.64
2018-08-16T15:59:18.392Z,33.14
2018-08-16T16:01:50.880Z,33.10
2018-08-16T16:04:23.235Z,33.45
2018-08-16T16:06:53.368Z,33.73
2018-08-16T16:09:27.799Z,33.88
2018-08-16T16:14:36.006Z,33.87
2018-08-16T16:17:06.749Z,33.43
2018-08-16T16:19:37.514Z,33.62
2018-08-16T16:22:09.284Z,33.70
2018-08-16T16:24:41.613Z,33.44
2018-08-16T16:27:13.455Z,33.32
2018-08-16T16:29:45.046Z,33.17
2018-08-16T16:32:16.668Z,33.26
2018-08-16T16:37:23.269Z,33.11
2018-08-16T16:39:55.706Z,32.81
2018-08-16T16:42:26.728Z,32.62
2018-08-16T16:44:57.502Z,32.33
2018-08-16T16:47:27.689Z,32.30
2018-08-16T16:50:00.227Z,32.57
2018-08-16T16:52:31.572Z,32.78
2018-08-16T16:55:03.090Z,33.09
2018-08-16T16:57:36.289Z,33.35
2018-08-16T17:00:08.387Z,33.57
2018-08-16T17:02:39.073Z,33.63
2018-08-16T17:05:10.299Z,33.17
2018-08-16T17:07:42.290Z,32.63
2018-08-16T17:10:15.785Z,32.30
2018-08-16T17:12:45.812Z,31.71
2018-08-16T17:15:17.756Z,31.33
2018-08-16T17:17:50.697Z,31.13
2018-08-16T17:20:22.878Z,31.02
2018-08-16T17:22:54.856Z,31.02
2018-08-16T17:25:28.924Z,30.80
2018-08-16T17:28:01.776Z,30.67
2018-08-16T17:30:33.807Z,30.64
2018-08-16T17:33:05.962Z,30.45
2018-08-16T17:35:37.920Z,30.32
2018-08-16T17:38:09.969Z,30.15
2018-08-16T17:40:41.187Z,30.19
2018-08-16T17:43:14.025Z,29.86
2018-08-16T17:45:48.375Z,29.52
2018-08-16T17:48:19.020Z,29.45
2018-08-16T17:50:49.683Z,29.28
2018-08-16T17:58:18.089Z,28.30
2018-08-16T18:00:48.232Z,28.35
2018-08-16T18:03:21.483Z,28.32
2018-08-16T18:05:53.483Z,28.26
2018-08-16T18:08:24.862Z,28.39
2018-08-16T18:10:56.381Z,28.23
2018-08-16T18:13:28.433Z,28.20
2018-08-16T18:15:59.179Z,28.02
2018-08-16T18:18:30.380Z,27.87
2018-08-16T18:21:00.635Z,27.85
2018-08-16T18:23:31.880Z,27.69
2018-08-16T18:26:05.292Z,27.68
2018-08-16T18:28:38.154Z,27.81
2018-08-16T18:31:10.889Z,27.57
2018-08-16T18:33:43.457Z,27.35
2018-08-16T18:36:16.661Z,27.22
2018-08-16T18:38:48.322Z,27.16
2018-08-16T18:41:20.533Z,27.16
2018-08-16T18:43:54.216Z,26.94
2018-08-16T18:46:25.329Z,26.81
2018-08-16T18:48:57.329Z,26.71
2018-08-16T18:51:29.323Z,26.58
2018-08-16T18:54:01.064Z,26.44
2018-08-16T18:56:32.387Z,26.42
2018-08-16T18:59:03.529Z,26.38
2018-08-16T19:01:34.358Z,26.29
2018-08-16T19:04:04.928Z,26.16
2018-08-16T19:06:36.703Z,26.07
2018-08-16T19:09:10.211Z,25.96
2018-08-16T19:11:40.736Z,25.93
2018-08-16T19:14:12.438Z,25.83
2018-08-16T19:16:45.971Z,25.67
2018-08-16T19:19:16.795Z,25.61
2018-08-16T19:21:47.561Z,25.52
2018-08-16T19:24:19.901Z,25.51
2018-08-16T19:26:50.836Z,25.45
2018-08-16T19:29:22.605Z,25.39
2018-08-16T19:31:53.309Z,25.39
2018-08-16T19:34:25.815Z,25.34
2018-08-16T19:36:57.560Z,25.30
2018-08-16T19:39:27.514Z,25.23
2018-08-16T19:41:58.622Z,25.11
2018-08-16T19:44:30.248Z,25.02
2018-08-16T19:47:01.714Z,24.82
2018-08-16T19:49:36.370Z,24.89
2018-08-16T19:52:10.410Z,24.89
2018-08-16T19:54:41.128Z,24.88
2018-08-16T19:57:17.058Z,24.79
2018-08-16T19:59:48.358Z,24.73
2018-08-16T20:02:20.866Z,24.70
2018-08-16T20:04:50.846Z,24.58
2018-08-16T20:07:22.517Z,24.52
2018-08-16T20:09:54.600Z,24.45
2018-08-16T20:12:26.536Z,24.41
2018-08-16T20:14:58.457Z,24.30
2018-08-16T20:17:31.457Z,24.22
2018-08-16T20:20:04.645Z,24.26
2018-08-16T20:22:35.943Z,24.23
2018-08-16T20:25:09.804Z,24.12
2018-08-16T20:27:41.982Z,23.97
2018-08-16T20:30:16.852Z,23.86
2018-08-16T20:32:48.085Z,23.84
2018-08-16T20:35:20.636Z,23.87
2018-08-16T20:37:51.693Z,23.89
2018-08-16T20:40:24.274Z,23.93
2018-08-16T20:42:54.933Z,23.85
2018-08-16T20:45:26.712Z,23.85
2018-08-16T20:50:35.806Z,23.66
2018-08-16T20:53:07.494Z,23.72
2018-08-16T20:55:37.749Z,23.72
2018-08-16T20:58:08.585Z,23.43
2018-08-16T21:00:39.853Z,23.35
2018-08-16T21:03:12.889Z,23.38
2018-08-16T21:05:44.877Z,23.31
2018-08-16T21:08:16.108Z,23.30
2018-08-16T21:10:47.572Z,23.23
2018-08-16T21:13:18.888Z,23.22
2018-08-16T21:15:51.457Z,23.27
2018-08-16T21:18:22.414Z,23.23
2018-08-16T21:20:54.460Z,23.17
2018-08-16T21:23:28.436Z,23.23
2018-08-16T21:25:59.456Z,23.32
2018-08-16T21:28:30.915Z,23.18
2018-08-16T21:31:03.938Z,23.16
2018-08-16T21:33:39.115Z,23.21
2018-08-16T21:36:11.581Z,23.08
2018-08-16T21:38:42.329Z,22.91
2018-08-16T21:41:13.312Z,22.90
2018-08-16T21:43:42.377Z,22.90
2018-08-16T21:46:13.051Z,22.92
2018-08-16T21:48:44.534Z,22.89
2018-08-16T21:51:16.857Z,22.76
2018-08-16T21:53:48.610Z,22.64
2018-08-16T21:56:21.714Z,22.59
2018-08-16T21:58:53.104Z,22.61
2018-08-16T22:01:25.245Z,22.67
2018-08-16T22:06:42.951Z,22.59
2018-08-16T22:09:14.189Z,22.62
2018-08-16T22:11:46.075Z,22.43
2018-08-16T22:14:18.577Z,22.28
2018-08-16T22:16:50.064Z,22.18
2018-08-16T22:19:20.761Z,22.11
2018-08-16T22:24:31.558Z,22.20
2018-08-16T22:27:03.293Z,22.42
2018-08-16T22:29:36.209Z,22.52
2018-08-16T22:32:07.599Z,22.32
2018-08-16T22:34:43.959Z,22.28
2018-08-16T22:37:15.290Z,22.26
2018-08-16T22:39:47.450Z,22.35
2018-08-16T22:42:19.678Z,22.21
2018-08-16T22:44:52.102Z,22.26
2018-08-16T22:47:24.269Z,22.22
2018-08-16T22:49:57.896Z,22.15
2018-08-16T22:52:30.211Z,21.74
2018-08-16T22:55:00.933Z,21.64
2018-08-16T22:57:34.048Z,21.61
2018-08-16T23:00:04.449Z,21.64
2018-08-16T23:02:35.992Z,21.82
2018-08-16T23:05:06.729Z,22.13
2018-08-16T23:07:38.559Z,22.19
2018-08-16T23:10:11.074Z,22.15
2018-08-16T23:12:42.659Z,21.97
2018-08-16T23:15:15.746Z,21.76
2018-08-16T23:17:51.694Z,21.81
2018-08-16T23:20:22.950Z,21.88
2018-08-16T23:22:57.929Z,21.88
2018-08-16T23:25:29.187Z,21.73
2018-08-16T23:28:00.669Z,21.73
2018-08-16T23:30:32.560Z,21.79
2018-08-16T23:33:03.256Z,21.75
2018-08-16T23:35:34.264Z,21.85
2018-08-16T23:38:08.336Z,21.68
2018-08-16T23:40:39.664Z,21.64
2018-08-16T23:43:12.627Z,21.57
2018-08-16T23:45:44.205Z,21.49
2018-08-16T23:48:25.057Z,21.39
2018-08-16T23:50:56.907Z,21.23
2018-08-16T23:53:29.163Z,21.17
2018-08-16T23:55:59.920Z,21.18
2018-08-16T23:58:31.111Z,21.27
